^^
Meteo Knjazevac Station Historical Data
Daily Summary for February 6, 2021 Units:  Both    English   Metric
Daily Weekly Monthly Yearly Custom
  High: Low: Average:
Temperature: 34.5 °F /  1.4 °C 32.7 °F /  0.4 °C 33.5 °F /  0.8 °C
Dew Point: 34 °F /  1.1 °C 31.7 °F /  -0.2 °C 32.8 °F /  0.4 °C
Humidity: 99% 94% 97%
Wind Speed: 5mph /  8km/h - 2mph /  3.2km/h
Wind Gust: 8mph /  12.9km/h - -
Wind- - SSW
Pressure: 30.02 in /  1016.5 hPa 30.00 in /  1015.8 hPa -
Precipitation: 0.00 in /  0 mm    
Historical Graphs
 
 
Tabular Data for February 6, 2021
Time Temperature Dew Point Pressure Wind Wind Speed Wind Gust Humidity Rainfall Rate (Hourly) solar Conditions
00:00 33.8 °F /  1 °C 32.3 °F /  0.2 °C 30.01in /  1016.1hPa West 5mph /  8km/h 8mph /  12.9km/h 94% 0.00in /  0mm 0 W/m2
00:10 33.4 °F /  0.8 °C 32.2 °F /  0.1 °C 30.01in /  1016.1hPa West 3mph /  4.8km/h 7mph /  11.3km/h 95% 0.00in /  0mm 0 W/m2
00:20 33.7 °F /  0.9 °C 32.7 °F /  0.4 °C 30.01in /  1016.1hPa WNW 5mph /  8km/h 8mph /  12.9km/h 96% 0.00in /  0mm 0 W/m2
00:30 34 °F /  1.1 °C 32.7 °F /  0.4 °C 30.01in /  1016.1hPa WNW 2mph /  3.2km/h 8mph /  12.9km/h 95% 0.00in /  0mm 0 W/m2
00:40 33.4 °F /  0.8 °C 32.2 °F /  0.1 °C 30.01in /  1016.1hPa West 2mph /  3.2km/h 5mph /  8km/h 95% 0.00in /  0mm 0 W/m2
00:50 33.1 °F /  0.6 °C 31.8 °F /  -0.1 °C 30.01in /  1016.1hPa West 2mph /  3.2km/h 5mph /  8km/h 95% 0.00in /  0mm 0 W/m2
01:00 32.9 °F /  0.5 °C 31.9 °F /  -0.1 °C 30.01in /  1016.1hPa NW 2mph /  3.2km/h 6mph /  9.7km/h 96% 0.00in /  0mm 0 W/m2
01:10 33.3 °F /  0.7 °C 32.2 °F /  0.1 °C 30.02in /  1016.5hPa Calm   6mph /  9.7km/h 96% 0.00in /  0mm 0 W/m2
01:20 33.4 °F /  0.8 °C 32.4 °F /  0.2 °C 30.02in /  1016.5hPa NW 1mph /  1.6km/h 5mph /  8km/h 96% 0.00in /  0mm 0 W/m2
01:30 33.3 °F /  0.7 °C 32.3 °F /  0.2 °C 30.02in /  1016.5hPa WSW 2mph /  3.2km/h 4mph /  6.4km/h 96% 0.00in /  0mm 0 W/m2
01:40 33.1 °F /  0.6 °C 32.1 °F /  0.1 °C 30.01in /  1016.1hPa WNW 3mph /  4.8km/h 6mph /  9.7km/h 96% 0.00in /  0mm 0 W/m2
01:50 32.9 °F /  0.5 °C 31.9 °F /  -0.1 °C 30.02in /  1016.5hPa WNW 3mph /  4.8km/h 7mph /  11.3km/h 96% 0.00in /  0mm 0 W/m2
02:00 33.1 °F /  0.6 °C 32.6 °F /  0.3 °C 30.02in /  1016.5hPa West 3mph /  4.8km/h 7mph /  11.3km/h 98% 0.00in /  0mm 0 W/m2
02:10 32.9 °F /  0.5 °C 31.9 °F /  -0.1 °C 30.02in /  1016.5hPa West 2mph /  3.2km/h 6mph /  9.7km/h 96% 0.00in /  0mm 0 W/m2
02:20 32.7 °F /  0.4 °C 31.7 °F /  -0.2 °C 30.02in /  1016.5hPa Calm   5mph /  8km/h 96% 0.00in /  0mm 0 W/m2
02:30 32.7 °F /  0.4 °C 31.7 °F /  -0.2 °C 30.02in /  1016.5hPa Calm   2mph /  3.2km/h 96% 0.00in /  0mm 0 W/m2
02:40 32.7 °F /  0.4 °C 32.2 °F /  0.1 °C 30.02in /  1016.5hPa North 1mph /  1.6km/h 5mph /  8km/h 98% 0.00in /  0mm 0 W/m2
02:50 32.9 °F /  0.5 °C 32.4 °F /  0.2 °C 30.02in /  1016.5hPa ENE 1mph /  1.6km/h 4mph /  6.4km/h 98% 0.00in /  0mm 0 W/m2
03:00 33.1 °F /  0.6 °C 32.6 °F /  0.3 °C 30.02in /  1016.5hPa NNW 1mph /  1.6km/h 4mph /  6.4km/h 98% 0.00in /  0mm 0 W/m2
03:10 33.4 °F /  0.8 °C 32.9 °F /  0.5 °C 30.01in /  1016.1hPa North 2mph /  3.2km/h 5mph /  8km/h 98% 0.00in /  0mm 0 W/m2
03:20 33.6 °F /  0.9 °C 33.1 °F /  0.6 °C 30.01in /  1016.1hPa NNE 2mph /  3.2km/h 5mph /  8km/h 98% 0.00in /  0mm 0 W/m2
03:30 33.6 °F /  0.9 °C 33.1 °F /  0.6 °C 30.01in /  1016.1hPa Calm   4mph /  6.4km/h 98% 0.00in /  0mm 0 W/m2
03:40 33.4 °F /  0.8 °C 32.4 °F /  0.2 °C 30.01in /  1016.1hPa WSW 2mph /  3.2km/h 5mph /  8km/h 96% 0.00in /  0mm 0 W/m2
03:50 33.4 °F /  0.8 °C 32.9 °F /  0.5 °C 30.00in /  1015.8hPa West 3mph /  4.8km/h 6mph /  9.7km/h 98% 0.00in /  0mm 0 W/m2
04:00 33.4 °F /  0.8 °C 32.9 °F /  0.5 °C 30.00in /  1015.8hPa NNW 3mph /  4.8km/h 5mph /  8km/h 98% 0.00in /  0mm 0 W/m2
04:10 33.7 °F /  0.9 °C 33.2 °F /  0.7 °C 30.01in /  1016.1hPa NNE 1mph /  1.6km/h 6mph /  9.7km/h 98% 0.00in /  0mm 0 W/m2
04:20 34 °F /  1.1 °C 33.5 °F /  0.8 °C 30.00in /  1015.8hPa NNE 3mph /  4.8km/h 6mph /  9.7km/h 98% 0.00in /  0mm 0 W/m2
04:30 33.8 °F /  1 °C 33.3 °F /  0.7 °C 30.00in /  1015.8hPa NNE 3mph /  4.8km/h 5mph /  8km/h 98% 0.00in /  0mm 0 W/m2
04:40 33.8 °F /  1 °C 32.8 °F /  0.4 °C 30.01in /  1016.1hPa NE 3mph /  4.8km/h 7mph /  11.3km/h 96% 0.00in /  0mm 0 W/m2
04:50 33.6 °F /  0.9 °C 33.1 °F /  0.6 °C 30.00in /  1015.8hPa NNE 2mph /  3.2km/h 6mph /  9.7km/h 98% 0.00in /  0mm 0 W/m2
05:00 33.8 °F /  1 °C 33.3 °F /  0.7 °C 30.01in /  1016.1hPa West 3mph /  4.8km/h 5mph /  8km/h 98% 0.00in /  0mm 0 W/m2
05:10 33.6 °F /  0.9 °C 33.1 °F /  0.6 °C 30.00in /  1015.8hPa West 3mph /  4.8km/h 5mph /  8km/h 98% 0.00in /  0mm 0 W/m2
05:20 33.6 °F /  0.9 °C 33.1 °F /  0.6 °C 30.00in /  1015.8hPa WSW 2mph /  3.2km/h 4mph /  6.4km/h 98% 0.00in /  0mm 0 W/m2
05:30 33.6 °F /  0.9 °C 33.1 °F /  0.6 °C 30.00in /  1015.8hPa West 2mph /  3.2km/h 6mph /  9.7km/h 98% 0.00in /  0mm 0 W/m2
05:40 33.9 °F /  1.1 °C 33.7 °F /  0.9 °C 30.01in /  1016.1hPa West 1mph /  1.6km/h 5mph /  8km/h 99% 0.00in /  0mm 0 W/m2
05:50 34.2 °F /  1.2 °C 33.7 °F /  0.9 °C 30.01in /  1016.1hPa West 1mph /  1.6km/h 5mph /  8km/h 98% 0.00in /  0mm 0 W/m2
06:00 34.3 °F /  1.3 °C 33.8 °F /  1 °C 30.01in /  1016.1hPa Calm   2mph /  3.2km/h 98% 0.00in /  0mm 0 W/m2
06:10 34.5 °F /  1.4 °C 34 °F /  1.1 °C 30.01in /  1016.1hPa SW 1mph /  1.6km/h 3mph /  4.8km/h 98% 0.00in /  0mm 0 W/m2
06:20 34.3 °F /  1.3 °C 33.8 °F /  1 °C 30.01in /  1016.1hPa WSW 1mph /  1.6km/h 4mph /  6.4km/h 98% 0.00in /  0mm 0 W/m2
06:30 34.3 °F /  1.3 °C 33.8 °F /  1 °C 30.01in /  1016.1hPa NNE 5mph /  8km/h 7mph /  11.3km/h 98% 0.00in /  0mm 0 W/m2
Knjazevac, Serbia
Compliments of Weather Underground - 2 mb